Time;durP1;ratioP1;P1;durP2;ratioP2;P2;SDS_P1;SDS_P2;PMS_P1;PMS_P2;Temp;Humidity;BMP_temperature;BMP_pressure;BME280_temperature;BME280_humidity;BME280_pressure;Samples;Min_cycle;Max_cycle;Signal;HPM_P1;HPM_P2
2022/03/17 00:01:08;;;;;;;42.03;30.50;;;;;;;12.41;54.78;97982.44;5049384;28;20256;-71
2022/03/17 00:03:34;;;;;;;43.40;31.77;;;;;;;12.37;54.74;97978.44;5053197;28;20285;-69
2022/03/17 00:05:59;;;;;;;45.63;31.67;;;;;;;12.39;54.60;97976.50;5020360;28;20951;-69
2022/03/17 00:08:24;;;;;;;40.10;30.40;;;;;;;12.20;54.95;97981.81;5016680;28;20324;-71
2022/03/17 00:10:50;;;;;;;37.50;29.70;;;;;;;12.23;54.97;97976.25;5049674;28;20199;-71
2022/03/17 00:13:16;;;;;;;41.30;31.70;;;;;;;12.20;55.39;97964.25;5035178;28;20939;-71
2022/03/17 00:15:41;;;;;;;40.20;32.90;;;;;;;12.24;55.20;97970.88;5063058;28;20460;-70
2022/03/17 00:18:07;;;;;;;42.97;32.20;;;;;;;12.32;54.73;97978.06;5054961;28;20194;-71
2022/03/17 00:20:33;;;;;;;44.60;33.90;;;;;;;12.32;55.01;97977.22;5052958;28;20689;-72
2022/03/17 00:22:59;;;;;;;43.13;31.97;;;;;;;12.12;55.01;97978.09;5055399;28;20429;-71
2022/03/17 00:25:25;;;;;;;47.13;34.30;;;;;;;12.18;55.13;97991.66;5054100;28;20239;-69
2022/03/17 00:27:51;;;;;;;43.60;33.90;;;;;;;12.17;55.13;97990.00;5053333;28;20179;-70
2022/03/17 00:30:16;;;;;;;38.77;31.13;;;;;;;12.20;55.10;97989.72;5055167;28;20824;-70
2022/03/17 00:32:42;;;;;;;40.53;32.13;;;;;;;12.26;54.86;97986.50;5061429;28;20183;-70
2022/03/17 00:37:52;;;;;;;43.17;32.83;;;;;;;12.27;55.07;97990.78;5048658;28;20190;-71
2022/03/17 00:40:17;;;;;;;42.70;31.70;;;;;;;12.25;54.87;97996.19;5054080;28;20456;-71
2022/03/17 00:42:43;;;;;;;39.13;31.60;;;;;;;12.10;54.54;97995.81;5052858;28;20207;-70
2022/03/17 00:45:12;;;;;;;40.70;32.67;;;;;;;12.06;54.95;97993.59;5053556;28;20230;-70
2022/03/17 00:47:38;;;;;;;39.53;31.97;;;;;;;11.97;55.48;97990.03;5053717;28;20309;-70
2022/03/17 00:50:05;;;;;;;43.13;31.63;;;;;;;12.05;55.62;97982.28;5054103;28;20434;-69
2022/03/17 00:52:31;;;;;;;41.90;32.40;;;;;;;12.12;55.07;97993.88;5061206;28;20463;-71
2022/03/17 00:54:57;;;;;;;42.40;33.40;;;;;;;12.15;55.16;97987.53;5053477;28;20442;-70
2022/03/17 00:57:23;;;;;;;44.30;32.50;;;;;;;12.00;54.85;97979.25;5052214;28;20273;-70
2022/03/17 00:59:49;;;;;;;40.50;30.97;;;;;;;12.00;55.20;97984.50;5053545;28;20422;-70
2022/03/17 01:02:14;;;;;;;42.00;31.47;;;;;;;12.05;55.21;97977.03;5053491;28;20221;-70
2022/03/17 01:04:40;;;;;;;37.53;30.53;;;;;;;12.05;55.32;97982.28;5053489;28;20249;-70
2022/03/17 01:07:05;;;;;;;39.00;31.57;;;;;;;12.10;55.47;97980.03;5053672;28;20195;-69
2022/03/17 01:09:32;;;;;;;41.03;32.00;;;;;;;12.11;55.18;97984.31;5052552;28;20187;-69
2022/03/17 01:11:57;;;;;;;42.33;33.20;;;;;;;12.08;55.01;97982.00;5053835;28;20248;-70
2022/03/17 01:14:23;;;;;;;42.13;33.67;;;;;;;12.09;54.79;97982.81;5053336;28;20498;-70
2022/03/17 01:16:50;;;;;;;40.53;32.37;;;;;;;12.07;54.98;97980.34;5051204;28;20277;-70
2022/03/17 01:19:19;;;;;;;40.47;31.40;;;;;;;12.09;55.07;97986.28;5053177;28;20202;-69
2022/03/17 01:21:46;;;;;;;37.30;29.60;;;;;;;12.04;54.93;97980.63;5053412;28;20459;-70
2022/03/17 01:24:11;;;;;;;42.43;31.97;;;;;;;11.96;55.08;97973.44;5044756;28;20449;-70
2022/03/17 01:26:37;;;;;;;36.53;29.47;;;;;;;12.00;55.06;97971.38;5053336;28;20825;-70
2022/03/17 01:29:02;;;;;;;43.43;30.50;;;;;;;12.01;54.93;97965.13;5053551;28;20264;-71
2022/03/17 01:31:29;;;;;;;41.10;30.50;;;;;;;12.00;55.18;97968.72;5056122;28;20185;-70
2022/03/17 01:33:54;;;;;;;38.10;29.47;;;;;;;12.02;55.03;97977.31;5054203;28;20217;-71
2022/03/17 01:36:20;;;;;;;39.47;30.83;;;;;;;12.00;55.02;97974.00;5051415;28;20939;-71
2022/03/17 01:38:45;;;;;;;40.53;31.87;;;;;;;11.86;55.53;97974.41;5053040;28;20186;-70
2022/03/17 01:41:10;;;;;;;38.07;30.30;;;;;;;11.94;55.29;97964.84;5053213;28;20309;-69
2022/03/17 01:43:36;;;;;;;38.30;30.80;;;;;;;11.94;55.45;97969.28;5051719;28;20199;-72
2022/03/17 01:46:01;;;;;;;36.90;30.47;;;;;;;11.96;55.02;97969.97;5051531;28;20195;-71
2022/03/17 01:48:27;;;;;;;41.13;31.07;;;;;;;11.70;55.93;97967.97;5061430;28;20187;-70
2022/03/17 01:50:53;;;;;;;40.20;30.67;;;;;;;11.81;55.48;97975.69;5053397;28;20744;-70
2022/03/17 01:53:20;;;;;;;40.30;31.90;;;;;;;11.89;55.49;97980.22;5044407;28;20199;-69
2022/03/17 01:55:45;;;;;;;43.00;30.87;;;;;;;11.74;55.66;97979.00;5051536;28;20479;-71
2022/03/17 01:58:10;;;;;;;40.60;30.07;;;;;;;11.78;55.57;97986.47;5051324;28;20425;-71
2022/03/17 02:00:37;;;;;;;36.13;29.40;;;;;;;11.84;55.63;97982.44;5052712;28;20203;-71
2022/03/17 02:03:03;;;;;;;36.73;29.90;;;;;;;11.79;55.24;97977.63;5035368;28;20201;-68
2022/03/17 02:05:28;;;;;;;40.30;30.77;;;;;;;11.58;55.88;97979.59;5059471;28;20417;-71
2022/03/17 02:07:54;;;;;;;41.40;31.40;;;;;;;11.66;56.29;97984.94;5052104;28;20174;-71
2022/03/17 02:10:21;;;;;;;41.23;30.10;;;;;;;11.75;55.88;97986.72;5051047;28;20189;-69
2022/03/17 02:15:32;;;;;;;36.67;28.83;;;;;;;11.68;56.07;97990.91;5053855;28;20985;-69
2022/03/17 02:17:59;;;;;;;40.27;29.70;;;;;;;11.70;55.76;97988.13;5061235;28;20483;-70
2022/03/17 02:20:25;;;;;;;39.40;31.80;;;;;;;11.68;55.63;97985.66;5061146;28;20457;-69
2022/03/17 02:22:52;;;;;;;37.67;28.83;;;;;;;11.73;55.83;97990.47;5046347;28;20490;-70
2022/03/17 02:25:35;;;;;;;39.50;30.40;;;;;;;11.76;55.77;97987.56;5031955;28;20422;-70
2022/03/17 02:28:05;;;;;;;37.57;29.23;;;;;;;11.82;55.55;97993.09;5022003;28;20418;-70
2022/03/17 02:30:34;;;;;;;36.37;28.90;;;;;;;11.83;55.39;97992.13;5050952;28;20779;-71
2022/03/17 02:33:10;;;;;;;38.93;30.07;;;;;;;11.78;55.39;97990.91;5034179;28;20500;-71
2022/03/17 02:35:39;;;;;;;49.20;30.23;;;;;;;11.60;55.79;97993.38;5025594;28;20453;-71
2022/03/17 02:38:06;;;;;;;38.50;28.73;;;;;;;11.52;56.05;97992.28;5050790;28;20456;-71
2022/03/17 02:40:34;;;;;;;39.43;31.20;;;;;;;11.64;55.75;98000.88;5000622;28;21081;-70
2022/03/17 02:43:00;;;;;;;41.13;32.00;;;;;;;11.70;55.73;97996.84;5050805;28;20479;-71
2022/03/17 02:45:26;;;;;;;38.87;30.00;;;;;;;11.71;55.99;98001.13;5051622;28;20435;-70
2022/03/17 02:47:52;;;;;;;38.33;30.17;;;;;;;11.77;55.95;98000.56;5034305;28;20426;-71
2022/03/17 02:50:18;;;;;;;41.00;31.80;;;;;;;11.77;55.94;98000.56;5033287;28;20186;-72
2022/03/17 02:52:44;;;;;;;37.13;28.70;;;;;;;11.76;55.34;97998.91;5029137;28;20914;-69
2022/03/17 02:55:14;;;;;;;38.33;29.83;;;;;;;11.63;55.48;98006.22;5013550;28;20297;-70
2022/03/17 02:57:40;;;;;;;41.90;32.40;;;;;;;11.60;56.10;98003.88;5051422;28;20498;-70
2022/03/17 03:00:08;;;;;;;42.30;31.87;;;;;;;11.65;55.99;98006.94;5051329;28;20477;-71
2022/03/17 03:02:34;;;;;;;39.90;30.27;;;;;;;11.67;56.12;98003.19;5043580;28;20437;-70
2022/03/17 03:04:59;;;;;;;41.00;31.50;;;;;;;11.69;56.12;98008.31;5049746;28;21218;-70
2022/03/17 03:07:25;;;;;;;38.17;30.73;;;;;;;11.73;56.11;97995.72;5050804;28;20654;-70
2022/03/17 03:09:54;;;;;;;40.20;30.80;;;;;;;11.73;55.99;97998.34;5051394;28;20193;-70
2022/03/17 03:12:20;;;;;;;37.30;29.00;;;;;;;11.73;56.15;98001.78;5050584;28;20575;-69
2022/03/17 03:14:46;;;;;;;41.73;31.27;;;;;;;11.76;56.10;98006.78;5050690;28;20441;-70
2022/03/17 03:17:11;;;;;;;39.83;31.20;;;;;;;11.80;56.00;98005.53;5049826;28;20244;-69
2022/03/17 03:19:37;;;;;;;42.50;28.80;;;;;;;11.80;55.80;98008.16;5051272;28;20421;-70
2022/03/17 03:22:02;;;;;;;40.57;30.23;;;;;;;11.82;55.93;98003.59;5050000;28;20284;-72
2022/03/17 03:24:28;;;;;;;38.87;29.90;;;;;;;11.86;56.03;98005.91;5042322;28;20199;-69
2022/03/17 03:26:53;;;;;;;41.00;30.87;;;;;;;11.87;55.84;98012.84;5049819;28;20187;-71
2022/03/17 03:31:49;;;;;;;39.67;30.17;;;;;;;11.82;56.00;98008.84;5049520;28;20183;-71
2022/03/17 03:34:14;;;;;;;39.27;30.80;;;;;;;11.86;55.84;98013.81;5050669;28;20464;-69
2022/03/17 03:39:24;;;;;;;40.57;31.50;;;;;;;11.91;55.71;98014.22;5050734;28;20240;-70
2022/03/17 03:41:49;;;;;;;39.70;31.53;;;;;;;11.94;55.43;98017.38;5051082;28;20461;-69
2022/03/17 03:44:15;;;;;;;39.27;30.40;;;;;;;11.98;55.48;98016.19;5050547;28;20207;-69
2022/03/17 03:46:41;;;;;;;43.77;33.50;;;;;;;11.87;54.94;98016.31;5050432;28;20201;-69
2022/03/17 03:49:07;;;;;;;47.20;33.73;;;;;;;11.77;54.74;98013.69;5048920;28;20451;-69
2022/03/17 03:51:33;;;;;;;43.07;33.07;;;;;;;11.72;54.69;98025.56;5049639;28;20190;-69
2022/03/17 03:54:15;;;;;;;41.60;32.47;;;;;;;11.68;54.62;98023.22;5042819;28;20595;-69
2022/03/17 03:56:42;;;;;;;43.97;32.63;;;;;;;11.78;54.46;98023.22;5048874;28;20607;-70
2022/03/17 03:59:08;;;;;;;44.50;33.97;;;;;;;11.80;54.54;98023.91;5049148;28;20422;-71
2022/03/17 04:01:34;;;;;;;47.10;34.77;;;;;;;11.72;54.49;98026.41;5049471;28;20974;-69
2022/03/17 04:04:01;;;;;;;47.47;34.63;;;;;;;11.75;54.75;98028.75;5050632;28;20448;-70
2022/03/17 04:06:27;;;;;;;43.83;33.60;;;;;;;11.74;54.36;98031.53;5052475;28;20207;-71
2022/03/17 04:08:52;;;;;;;42.47;31.30;;;;;;;11.73;54.31;98041.19;5056101;28;20512;-70
2022/03/17 04:11:18;;;;;;;45.10;32.13;;;;;;;11.78;54.37;98040.78;5050365;28;20504;-70
2022/03/17 04:13:43;;;;;;;49.73;32.70;;;;;;;11.75;54.41;98044.50;5049365;28;20314;-70
2022/03/17 04:16:09;;;;;;;43.37;32.67;;;;;;;11.67;54.56;98045.19;5048847;28;20199;-70
2022/03/17 04:18:35;;;;;;;45.33;33.00;;;;;;;11.71;54.67;98045.78;5059947;28;20214;-70
2022/03/17 04:21:00;;;;;;;45.73;33.30;;;;;;;11.79;54.58;98053.78;5050501;28;20207;-71
2022/03/17 04:23:25;;;;;;;43.00;30.93;;;;;;;11.82;54.06;98047.41;5041897;28;20203;-71
2022/03/17 04:25:51;;;;;;;44.57;33.50;;;;;;;11.86;54.23;98054.03;5049776;28;20183;-70
2022/03/17 04:28:16;;;;;;;44.90;33.27;;;;;;;11.89;54.11;98060.81;5050491;28;20189;-71
2022/03/17 04:30:42;;;;;;;44.40;33.53;;;;;;;11.98;53.65;98052.97;5050540;28;20628;-70
2022/03/17 04:33:07;;;;;;;48.13;35.23;;;;;;;11.95;53.46;98063.72;5050166;28;20229;-71
2022/03/17 04:35:33;;;;;;;47.30;32.87;;;;;;;11.98;53.53;98065.25;5048859;28;20226;-72
2022/03/17 04:37:58;;;;;;;39.47;30.43;;;;;;;12.03;54.12;98063.03;5050319;28;20606;-69
2022/03/17 04:40:24;;;;;;;41.70;31.30;;;;;;;12.03;54.81;98067.47;5048650;28;20229;-70
2022/03/17 04:42:49;;;;;;;38.63;30.57;;;;;;;12.04;54.61;98071.75;5040186;28;20645;-71
2022/03/17 04:45:15;;;;;;;39.40;30.77;;;;;;;12.08;54.80;98081.00;5034590;28;20296;-70
2022/03/17 04:47:40;;;;;;;39.27;30.70;;;;;;;11.88;54.87;98074.91;5055410;28;20195;-70
2022/03/17 04:50:06;;;;;;;40.47;29.50;;;;;;;11.80;55.29;98079.06;5046708;28;20183;-69
2022/03/17 04:55:16;;;;;;;42.13;31.87;;;;;;;11.93;55.14;98085.84;5050451;28;20811;-70
2022/03/17 04:57:41;;;;;;;40.17;30.70;;;;;;;11.98;55.36;98088.88;5049795;28;20425;-70
2022/03/17 05:00:07;;;;;;;43.77;31.20;;;;;;;12.02;55.09;98086.84;5052354;28;20194;-72
2022/03/17 05:02:33;;;;;;;42.80;33.43;;;;;;;11.75;55.51;98083.91;5045899;28;20260;-69
2022/03/17 05:04:58;;;;;;;45.10;30.60;;;;;;;11.73;55.98;98088.47;5035927;28;20461;-70
2022/03/17 05:07:23;;;;;;;42.53;32.20;;;;;;;11.85;55.72;98089.16;5045273;28;20214;-71
2022/03/17 05:09:49;;;;;;;42.90;33.00;;;;;;;11.88;55.32;98095.91;5039827;28;20332;-72
2022/03/17 05:12:15;;;;;;;48.03;33.73;;;;;;;11.96;55.18;98098.69;5054215;28;20236;-70
2022/03/17 05:14:41;;;;;;;45.20;32.23;;;;;;;11.99;55.24;98103.69;5057169;28;20198;-69
2022/03/17 05:17:07;;;;;;;42.23;32.00;;;;;;;12.01;55.30;98109.63;5068533;28;20433;-70
2022/03/17 05:19:34;;;;;;;41.87;33.43;;;;;;;11.94;55.20;98106.72;5064356;28;20649;-70
2022/03/17 05:21:59;;;;;;;47.60;34.53;;;;;;;11.81;55.18;98106.16;5071861;28;20195;-71
2022/03/17 05:24:24;;;;;;;43.00;32.13;;;;;;;11.74;56.05;98113.75;5072771;28;20878;-71
2022/03/17 05:26:50;;;;;;;47.50;32.90;;;;;;;11.84;55.49;98111.94;5063486;28;20279;-70
2022/03/17 05:29:15;;;;;;;44.50;33.10;;;;;;;11.83;55.23;98120.81;5057325;28;20195;-69
2022/03/17 05:31:42;;;;;;;45.93;33.27;;;;;;;11.88;54.88;98116.94;5044720;28;20269;-70
2022/03/17 05:34:07;;;;;;;51.53;32.07;;;;;;;11.87;54.99;98120.53;5047234;28;20204;-72
2022/03/17 05:36:33;;;;;;;45.20;32.57;;;;;;;11.81;54.79;98117.50;5054682;28;20961;-71
2022/03/17 05:38:58;;;;;;;44.20;33.60;;;;;;;11.73;55.24;98119.97;5050782;28;20323;-71
2022/03/17 05:41:23;;;;;;;43.30;32.43;;;;;;;11.82;55.47;98123.56;5056195;28;20286;-71
2022/03/17 05:43:49;;;;;;;50.63;35.40;;;;;;;11.83;54.84;98117.34;5048974;28;20206;-71
2022/03/17 05:46:14;;;;;;;48.30;35.50;;;;;;;11.89;54.85;98119.44;5048621;28;20718;-71
2022/03/17 05:48:40;;;;;;;46.00;35.10;;;;;;;11.86;54.53;98116.25;5066962;28;20202;-71
2022/03/17 05:51:06;;;;;;;49.17;34.30;;;;;;;11.83;54.38;98122.59;5060780;28;20616;-72
2022/03/17 05:53:31;;;;;;;51.33;36.03;;;;;;;11.81;53.94;98124.53;5072244;28;20209;-72
2022/03/17 05:55:57;;;;;;;49.80;35.03;;;;;;;11.78;53.72;98130.91;5071785;28;20194;-71
2022/03/17 05:58:22;;;;;;;47.90;34.50;;;;;;;11.73;53.18;98140.97;5059676;28;20649;-71
2022/03/17 06:00:48;;;;;;;46.53;33.93;;;;;;;11.72;52.99;98131.44;5059768;28;20202;-71
2022/03/17 06:03:13;;;;;;;46.97;34.07;;;;;;;11.65;53.31;98127.72;5053199;28;20234;-70
2022/03/17 06:05:38;;;;;;;48.33;36.33;;;;;;;11.64;53.32;98121.66;5061823;28;20265;-71
2022/03/17 06:08:04;;;;;;;51.23;35.40;;;;;;;11.65;53.73;98133.81;5048992;28;20725;-70
2022/03/17 06:10:34;;;;;;;46.23;32.73;;;;;;;11.61;54.59;98126.31;5048333;28;20205;-70
2022/03/17 06:13:02;;;;;;;46.43;33.67;;;;;;;11.80;54.59;98131.59;5067070;28;20205;-71
2022/03/17 06:15:28;;;;;;;47.57;32.70;;;;;;;11.81;53.67;98128.00;5058607;28;21011;-70
2022/03/17 06:17:57;;;;;;;45.50;35.10;;;;;;;11.84;53.40;98127.72;5061072;28;20457;-71
2022/03/17 06:20:28;;;;;;;50.40;35.77;;;;;;;11.93;53.16;98136.56;5069796;28;20275;-69
2022/03/17 06:22:58;;;;;;;46.63;34.63;;;;;;;11.96;53.01;98138.13;5070551;28;20435;-69
2022/03/17 06:25:26;;;;;;;50.17;34.47;;;;;;;12.00;52.29;98142.13;5068388;28;20435;-71
2022/03/17 06:27:52;;;;;;;43.37;33.37;;;;;;;12.04;52.27;98146.16;5048074;28;20426;-71
2022/03/17 06:30:19;;;;;;;51.13;36.73;;;;;;;12.08;52.12;98142.28;5045131;28;20433;-70
2022/03/17 06:32:45;;;;;;;46.40;33.70;;;;;;;12.07;52.28;98143.25;5044964;28;20429;-71
2022/03/17 06:35:17;;;;;;;48.03;35.53;;;;;;;12.08;52.27;98149.31;5045420;28;20620;-71
2022/03/17 06:37:42;;;;;;;49.47;35.07;;;;;;;12.01;53.74;98142.97;5044247;28;20236;-71
2022/03/17 06:40:08;;;;;;;55.83;33.97;;;;;;;12.07;54.52;98147.66;5045347;28;20426;-69
2022/03/17 06:42:34;;;;;;;49.97;36.33;;;;;;;12.13;54.18;98161.06;5045296;28;20211;-72
2022/03/17 06:44:59;;;;;;;45.83;35.03;;;;;;;12.12;53.43;98162.03;5039884;28;20450;-71
2022/03/17 06:47:25;;;;;;;47.00;34.63;;;;;;;12.17;53.14;98173.94;5046839;28;20190;-70
2022/03/17 06:49:51;;;;;;;49.00;35.17;;;;;;;12.17;52.87;98181.81;5047642;28;20183;-70
2022/03/17 06:52:17;;;;;;;54.20;34.93;;;;;;;12.17;52.95;98189.72;5042607;28;20253;-70
2022/03/17 06:54:42;;;;;;;47.30;33.37;;;;;;;12.23;52.73;98199.66;5043391;28;20571;-70
2022/03/17 06:57:07;;;;;;;48.27;34.33;;;;;;;12.22;52.96;98198.03;5043402;28;20199;-71
2022/03/17 06:59:33;;;;;;;50.10;33.90;;;;;;;12.25;53.10;98198.56;5070275;28;20182;-70
2022/03/17 07:01:58;;;;;;;48.30;35.00;;;;;;;12.24;52.86;98204.78;5070112;28;20198;-70
2022/03/17 07:04:24;;;;;;;49.17;35.23;;;;;;;12.23;52.95;98199.66;5069524;28;20212;-71
2022/03/17 07:06:49;;;;;;;55.10;37.40;;;;;;;12.14;53.21;98196.91;5071459;28;20175;-71
2022/03/17 07:09:15;;;;;;;57.90;36.20;;;;;;;12.08;53.79;98191.38;5071319;28;20178;-71
2022/03/17 07:11:40;;;;;;;49.00;36.50;;;;;;;12.19;53.81;98204.38;5070431;28;20177;-70
2022/03/17 07:14:06;;;;;;;51.03;34.37;;;;;;;12.21;53.92;98206.88;5047877;28;20214;-70
2022/03/17 07:16:31;;;;;;;51.10;36.73;;;;;;;12.28;54.19;98214.06;5069830;28;20179;-71
2022/03/17 07:18:57;;;;;;;51.83;35.53;;;;;;;12.34;53.84;98212.69;5064666;28;20192;-71
2022/03/17 07:21:22;;;;;;;51.10;36.80;;;;;;;12.38;54.18;98221.13;5062577;28;20258;-71
2022/03/17 07:23:48;;;;;;;50.00;35.57;;;;;;;12.40;53.68;98222.63;5069973;28;20531;-71
2022/03/17 07:26:13;;;;;;;54.93;35.70;;;;;;;12.40;53.89;98229.69;5070836;28;20185;-71
2022/03/17 07:28:39;;;;;;;46.23;35.40;;;;;;;12.46;53.92;98223.06;5070934;28;20231;-70
2022/03/17 07:31:04;;;;;;;51.23;35.00;;;;;;;12.44;54.31;98228.44;5070468;28;20185;-70
2022/03/17 07:33:32;;;;;;;45.87;34.60;;;;;;;12.48;54.21;98231.59;5070910;28;20282;-70
2022/03/17 07:35:57;;;;;;;54.90;35.70;;;;;;;12.48;54.27;98234.25;5070920;28;20533;-70
2022/03/17 07:38:23;;;;;;;49.40;37.17;;;;;;;12.46;53.96;98230.94;5070879;28;20423;-71
2022/03/17 07:40:48;;;;;;;48.97;36.17;;;;;;;12.56;53.83;98235.22;5070017;28;20202;-72
2022/03/17 07:43:14;;;;;;;53.30;35.70;;;;;;;12.59;53.50;98234.13;5070807;28;20202;-71
2022/03/17 07:45:39;;;;;;;47.40;34.07;;;;;;;12.65;53.10;98240.63;5069155;28;20174;-71
2022/03/17 07:48:05;;;;;;;49.47;37.23;;;;;;;12.69;53.37;98249.88;5068933;28;20181;-71
2022/03/17 07:50:32;;;;;;;44.80;34.80;;;;;;;12.69;53.31;98244.59;5070942;28;20245;-71
2022/03/17 07:52:58;;;;;;;50.10;36.27;;;;;;;12.65;53.29;98251.94;5065691;28;20621;-72
2022/03/17 07:55:23;;;;;;;47.03;35.47;;;;;;;12.70;53.61;98246.28;5070053;28;20439;-71
2022/03/17 07:57:49;;;;;;;47.13;35.70;;;;;;;12.74;52.84;98259.00;5070908;28;20179;-71
2022/03/17 08:00:15;;;;;;;50.17;37.20;;;;;;;12.71;52.60;98256.66;5070688;28;20186;-71
2022/03/17 08:02:41;;;;;;;51.13;36.50;;;;;;;12.74;53.00;98248.47;5069441;28;20198;-71
2022/03/17 08:05:08;;;;;;;47.10;34.93;;;;;;;12.79;53.36;98257.75;5069136;28;20649;-72
2022/03/17 08:07:34;;;;;;;51.70;36.20;;;;;;;12.74;52.87;98256.38;5070482;28;20408;-72
2022/03/17 08:09:59;;;;;;;46.80;35.23;;;;;;;12.80;52.62;98262.06;5070949;28;20914;-69
2022/03/17 08:12:26;;;;;;;52.00;37.33;;;;;;;12.80;52.57;98264.69;5070192;28;20182;-72
2022/03/17 08:14:55;;;;;;;48.33;35.47;;;;;;;12.74;52.37;98272.16;5064849;28;20198;-70
2022/03/17 08:17:20;;;;;;;50.03;36.70;;;;;;;12.81;51.99;98267.16;5070693;28;20482;-69
2022/03/17 08:19:46;;;;;;;53.40;37.83;;;;;;;12.84;52.13;98271.31;5070896;28;20915;-70
2022/03/17 08:22:11;;;;;;;53.60;37.67;;;;;;;12.83;52.02;98274.94;5065329;28;20567;-72
2022/03/17 08:24:37;;;;;;;52.20;38.07;;;;;;;12.87;52.49;98276.28;5070087;28;20297;-71
2022/03/17 08:27:03;;;;;;;53.57;35.47;;;;;;;12.94;52.06;98282.66;5070185;28;20697;-70
2022/03/17 08:29:29;;;;;;;60.07;36.70;;;;;;;12.87;51.97;98286.81;5069147;28;20714;-70
2022/03/17 08:31:55;;;;;;;51.47;36.53;;;;;;;12.93;52.17;98290.69;5068908;28;20494;-71
2022/03/17 08:34:20;;;;;;;51.60;38.60;;;;;;;12.94;52.37;98287.09;5072957;28;20444;-70
2022/03/17 08:36:46;;;;;;;48.90;37.50;;;;;;;12.92;51.35;98292.50;5074195;28;20210;-70
2022/03/17 08:39:12;;;;;;;56.93;36.57;;;;;;;12.88;52.22;98293.75;5074329;28;20188;-70
2022/03/17 08:41:38;;;;;;;49.80;36.80;;;;;;;12.89;52.22;98290.13;5073099;28;20206;-70
2022/03/17 08:44:03;;;;;;;47.03;34.90;;;;;;;12.95;52.03;98292.22;5073419;28;20444;-71
2022/03/17 08:49:18;;;;;;;47.90;36.17;;;;;;;13.08;52.19;98296.34;5073617;28;20186;-70
2022/03/17 08:51:44;;;;;;;55.27;37.60;;;;;;;13.02;52.20;98295.13;5069145;28;20416;-70
2022/03/17 08:54:11;;;;;;;49.17;35.10;;;;;;;13.08;51.97;98298.97;5072369;28;20539;-71
2022/03/17 08:56:37;;;;;;;52.47;37.67;;;;;;;12.93;52.58;98302.06;5073637;28;20433;-72
2022/03/17 08:59:03;;;;;;;53.53;35.67;;;;;;;13.03;52.32;98307.31;5074028;28;20485;-71
2022/03/17 09:01:29;;;;;;;51.83;35.07;;;;;;;13.08;51.79;98301.63;5073656;28;20838;-70
2022/03/17 09:03:54;;;;;;;53.80;32.90;;;;;;;13.10;51.81;98310.22;5072939;28;20440;-72
2022/03/17 09:06:21;;;;;;;45.73;33.97;;;;;;;13.12;51.89;98305.59;5073044;28;20213;-72
2022/03/17 09:08:47;;;;;;;43.90;35.00;;;;;;;13.23;51.92;98308.09;5074034;28;20592;-71
2022/03/17 09:11:13;;;;;;;45.40;33.23;;;;;;;13.26;52.27;98313.06;5073449;28;20478;-70
2022/03/17 09:13:39;;;;;;;45.83;32.73;;;;;;;13.28;52.02;98316.38;5072431;28;20717;-71
2022/03/17 09:16:06;;;;;;;42.63;32.80;;;;;;;13.29;52.19;98319.88;5069695;28;20190;-69
2022/03/17 09:18:32;;;;;;;49.87;33.03;;;;;;;13.31;52.20;98321.38;5072355;28;20436;-71
2022/03/17 09:20:59;;;;;;;43.83;32.43;;;;;;;13.35;51.90;98306.97;5070343;28;20491;-71
2022/03/17 09:23:25;;;;;;;44.90;33.33;;;;;;;13.40;52.18;98317.09;5070834;28;20451;-71
2022/03/17 09:25:50;;;;;;;45.93;33.57;;;;;;;13.44;51.83;98310.53;5068724;28;20783;-70
2022/03/17 09:28:16;;;;;;;45.80;34.33;;;;;;;13.51;52.12;98305.53;5062779;28;20425;-71
2022/03/17 09:30:42;;;;;;;41.30;32.00;;;;;;;13.61;52.17;98308.97;5074019;28;20175;-72
2022/03/17 09:33:07;;;;;;;45.63;33.60;;;;;;;13.64;51.86;98311.31;5071808;28;20195;-72
2022/03/17 09:35:36;;;;;;;51.60;33.40;;;;;;;13.68;52.04;98317.13;5073440;28;20182;-72
2022/03/17 09:38:03;;;;;;;45.57;33.33;;;;;;;13.74;51.92;98307.78;5071256;28;20661;-71
2022/03/17 09:40:29;;;;;;;45.87;33.23;;;;;;;13.78;51.83;98311.81;5072748;28;20416;-72
2022/03/17 09:43:18;;;;;;;48.70;35.60;;;;;;;13.79;51.69;98309.03;5072073;28;20839;-71
2022/03/17 09:45:41;;;;;;;51.53;33.70;;;;;;;13.77;51.53;98304.88;5058322;28;20251;-72
2022/03/17 09:48:11;;;;;;;48.20;33.83;;;;;;;13.82;51.88;98300.00;5073303;28;20954;-72
2022/03/17 09:50:38;;;;;;;44.13;32.97;;;;;;;13.89;51.74;98308.97;5073201;28;20460;-72
2022/03/17 09:53:03;;;;;;;44.60;32.90;;;;;;;13.92;51.86;98298.16;5070769;28;20499;-72
2022/03/17 09:55:29;;;;;;;44.73;31.23;;;;;;;13.94;51.72;98305.91;5076579;28;20929;-71
2022/03/17 09:57:55;;;;;;;45.60;33.23;;;;;;;13.94;51.69;98306.75;5071913;28;20186;-72
2022/03/17 10:00:20;;;;;;;50.30;32.63;;;;;;;13.94;51.53;98306.75;5076652;28;20197;-70
2022/03/17 10:02:46;;;;;;;47.37;34.47;;;;;;;13.99;51.32;98314.22;5077489;28;20456;-72
2022/03/17 10:05:11;;;;;;;46.43;31.90;;;;;;;14.10;51.28;98315.81;5077669;28;20221;-71
2022/03/17 10:07:39;;;;;;;51.43;34.17;;;;;;;14.09;51.68;98314.16;5077892;28;20235;-70
2022/03/17 10:10:05;;;;;;;43.73;31.83;;;;;;;14.12;51.67;98309.41;5072936;28;20544;-69
2022/03/17 10:12:31;;;;;;;47.30;33.00;;;;;;;14.18;51.34;98321.19;5072710;28;20524;-71
2022/03/17 10:14:58;;;;;;;42.17;30.90;;;;;;;14.21;51.17;98322.69;5059548;28;20435;-72
2022/03/17 10:17:36;;;;;;;47.17;33.23;;;;;;;14.24;51.38;98322.38;5072420;28;20436;-71
2022/03/17 10:20:18;;;;;;;45.80;33.93;;;;;;;14.26;51.19;98320.44;5072437;28;20486;-71
2022/03/17 10:22:52;;;;;;;48.83;31.67;;;;;;;14.32;51.32;98330.38;5067380;28;20456;-71
2022/03/17 10:25:20;;;;;;;46.13;32.03;;;;;;;14.38;51.32;98323.69;5062381;28;20456;-70
2022/03/17 10:27:46;;;;;;;43.67;32.87;;;;;;;14.42;50.97;98322.41;5072495;28;20833;-71
2022/03/17 10:30:13;;;;;;;43.27;31.20;;;;;;;14.44;51.22;98331.00;5071723;28;20944;-72
2022/03/17 10:32:38;;;;;;;52.53;31.00;;;;;;;14.49;51.37;98335.81;5071847;28;20422;-71
2022/03/17 10:35:05;;;;;;;48.33;33.27;;;;;;;14.56;51.27;98331.59;5072101;28;20441;-70
2022/03/17 10:37:34;;;;;;;41.83;31.17;;;;;;;14.62;51.18;98346.03;5072076;28;20193;-70
2022/03/17 10:40:07;;;;;;;40.80;29.87;;;;;;;14.69;51.31;98347.09;5054347;28;20421;-70
2022/03/17 10:42:33;;;;;;;39.97;31.50;;;;;;;14.71;50.83;98345.16;5055721;28;21031;-70
2022/03/17 10:45:05;;;;;;;44.90;31.03;;;;;;;14.77;50.71;98349.00;5070354;28;20437;-71
2022/03/17 10:47:42;;;;;;;39.87;30.70;;;;;;;14.79;50.31;98349.69;5071298;28;20185;-70
2022/03/17 10:50:14;;;;;;;40.53;30.23;;;;;;;14.81;50.60;98350.31;5071197;28;20421;-71
2022/03/17 10:52:46;;;;;;;39.90;29.63;;;;;;;14.87;50.65;98355.00;5063358;28;20417;-71
2022/03/17 10:55:12;;;;;;;39.13;29.70;;;;;;;14.95;50.94;98356.91;5071047;28;20535;-71
2022/03/17 10:57:38;;;;;;;39.10;29.53;;;;;;;14.99;50.96;98359.06;5071383;28;20440;-70
2022/03/17 11:00:09;;;;;;;44.40;29.77;;;;;;;15.07;50.76;98358.31;5071850;28;20427;-72
2022/03/17 11:02:37;;;;;;;38.70;30.83;;;;;;;15.13;51.15;98364.78;5055885;28;20558;-71
2022/03/17 11:05:06;;;;;;;43.40;28.83;;;;;;;15.19;51.28;98365.00;5070948;28;20437;-70
2022/03/17 11:07:32;;;;;;;35.37;25.80;;;;;;;15.25;51.55;98368.03;5069826;28;20516;-70
2022/03/17 11:10:05;;;;;;;41.97;25.80;;;;;;;15.29;51.85;98375.50;5071113;28;20500;-70
2022/03/17 11:12:31;;;;;;;35.87;25.80;;;;;;;15.34;52.21;98375.84;5070263;28;20416;-70
2022/03/17 11:14:56;;;;;;;38.00;25.57;;;;;;;15.31;52.30;98372.69;5065704;28;20539;-72
2022/03/17 11:17:26;;;;;;;38.50;24.93;;;;;;;15.33;52.29;98370.72;5071679;28;20421;-71
2022/03/17 11:19:53;;;;;;;36.50;25.67;;;;;;;15.26;52.01;98380.22;5070462;28;20174;-71
2022/03/17 11:22:22;;;;;;;40.13;26.30;;;;;;;15.22;52.39;98382.34;5056352;28;20508;-72
2022/03/17 11:25:13;;;;;;;38.23;26.93;;;;;;;15.24;52.25;98383.03;5058651;28;20520;-71
2022/03/17 11:27:46;;;;;;;41.17;26.43;;;;;;;15.20;52.61;98381.66;5071031;28;20416;-71
2022/03/17 11:30:14;;;;;;;42.37;27.10;;;;;;;15.19;52.58;98380.84;5071310;28;20751;-71